Time;durP1;ratioP1;P1;durP2;ratioP2;P2;SDS_P1;SDS_P2;PMS_P1;PMS_P2;Temp;Humidity;BMP_temperature;BMP_pressure;BME280_temperature;BME280_humidity;BME280_pressure;Samples;Min_cycle;Max_cycle;Signal;HPM_P1;HPM_P2
2023/06/06 00:01:36;;;;;;;11.07;5.05;;;;;;;20.12;46.25;101938.94;6192921;23;20060;-67
2023/06/06 00:04:05;;;;;;;7.80;5.22;;;;;;;20.06;46.54;101937.25;6194225;23;20035;-65
2023/06/06 00:06:35;;;;;;;7.80;5.20;;;;;;;20.03;46.39;101931.50;6192940;23;20059;-67
2023/06/06 00:09:04;;;;;;;9.43;5.53;;;;;;;19.98;46.63;101932.25;6193718;23;20025;-66
2023/06/06 00:11:32;;;;;;;16.65;5.85;;;;;;;19.96;46.64;101933.59;6192047;23;20079;-66
2023/06/06 00:13:59;;;;;;;9.63;4.78;;;;;;;19.94;46.50;101939.31;6192868;23;20057;-67
2023/06/06 00:16:27;;;;;;;9.13;5.18;;;;;;;19.93;46.62;101932.22;6193687;23;20025;-66
2023/06/06 00:18:56;;;;;;;8.15;5.30;;;;;;;19.90;46.53;101931.91;6194067;23;20032;-67
2023/06/06 00:21:26;;;;;;;6.93;5.07;;;;;;;19.90;46.47;101931.91;6199604;23;20024;-66
2023/06/06 00:23:55;;;;;;;7.03;4.53;;;;;;;19.89;46.37;101931.06;6198701;23;20076;-65
2023/06/06 00:26:22;;;;;;;8.77;4.78;;;;;;;19.87;46.42;101935.97;6197359;23;20080;-65
2023/06/06 00:28:50;;;;;;;12.32;4.60;;;;;;;19.87;46.39;101926.97;6199729;23;20025;-65
2023/06/06 00:31:18;;;;;;;7.85;4.32;;;;;;;19.85;46.19;101931.84;6199067;23;20025;-65
2023/06/06 00:33:46;;;;;;;13.98;4.85;;;;;;;19.86;46.39;101931.59;6200505;23;20029;-64
2023/06/06 00:36:13;;;;;;;11.70;5.32;;;;;;;19.85;46.30;101934.59;6197840;23;20025;-66
2023/06/06 00:38:43;;;;;;;10.25;4.97;;;;;;;19.83;46.22;101935.66;6191861;23;20044;-66
2023/06/06 00:41:11;;;;;;;7.38;5.13;;;;;;;19.80;46.52;101940.81;6191220;23;20083;-68
2023/06/06 00:43:39;;;;;;;6.32;4.97;;;;;;;19.77;46.70;101930.41;6192854;23;20056;-67
2023/06/06 00:46:07;;;;;;;7.35;4.78;;;;;;;19.74;46.38;101931.75;6192048;23;20033;-65
2023/06/06 00:48:35;;;;;;;8.48;5.13;;;;;;;19.73;46.32;101927.38;6193477;23;20021;-67
2023/06/06 00:51:05;;;;;;;8.15;5.07;;;;;;;19.71;46.39;101928.72;6192198;23;20037;-65
2023/06/06 00:53:32;;;;;;;10.82;4.78;;;;;;;19.68;46.33;101927.31;6191530;23;20095;-67
2023/06/06 00:56:02;;;;;;;9.20;5.03;;;;;;;19.67;46.53;101935.75;6191123;23;20064;-66
2023/06/06 00:58:31;;;;;;;8.15;5.35;;;;;;;19.63;46.47;101927.25;6192459;23;20424;-65
2023/06/06 01:01:01;;;;;;;8.18;4.88;;;;;;;19.62;46.64;101935.69;6191725;23;20072;-66
2023/06/06 01:03:29;;;;;;;7.63;4.82;;;;;;;19.59;46.46;101928.03;6191399;23;20047;-66
2023/06/06 01:05:58;;;;;;;5.85;4.28;;;;;;;19.49;46.63;101910.44;6191881;23;20036;-67
2023/06/06 01:08:25;;;;;;;7.60;4.78;;;;;;;19.55;46.54;101925.00;6192301;23;20025;-66
2023/06/06 01:11:06;;;;;;;7.28;4.65;;;;;;;19.55;46.40;101924.16;6192021;23;20025;-66
2023/06/06 01:13:43;;;;;;;9.43;5.22;;;;;;;19.53;46.21;101924.41;6192708;23;20021;-66
2023/06/06 01:16:14;;;;;;;;;;;;;;;19.51;46.36;101929.28;6192817;23;20025;-66
2023/06/06 01:18:45;;;;;;;11.48;4.60;;;;;;;19.49;46.49;101934.97;6192662;23;19923;-66
2023/06/06 01:21:13;;;;;;;8.98;4.57;;;;;;;19.39;46.60;101928.56;6191967;23;20048;-67
2023/06/06 01:23:43;;;;;;;8.10;5.25;;;;;;;19.43;46.71;101935.16;6191016;23;20029;-64
2023/06/06 01:26:12;;;;;;;7.05;4.35;;;;;;;19.41;46.53;101927.25;6190344;23;20029;-64
2023/06/06 01:28:40;;;;;;;9.18;5.35;;;;;;;19.38;46.56;101933.22;6192401;23;20025;-68
2023/06/06 01:31:15;;;;;;;7.40;5.15;;;;;;;19.34;46.89;101932.06;6192551;23;20024;-66
2023/06/06 01:33:52;;;;;;;9.85;4.85;;;;;;;19.32;46.88;101931.50;6193143;23;20129;-66
2023/06/06 01:40:40;;;;;;;7.57;4.72;;;;;;;19.25;46.95;101928.13;3580704;23;22438;-62
2023/06/06 01:43:09;;;;;;;6.93;4.78;;;;;;;19.23;46.87;101938.47;6070155;23;20176;-67
2023/06/06 01:45:40;;;;;;;6.88;4.63;;;;;;;19.19;47.18;101926.41;6071143;23;20142;-66
2023/06/06 01:48:09;;;;;;;8.27;4.55;;;;;;;19.17;46.98;101932.13;6071054;23;20026;-66
2023/06/06 01:50:38;;;;;;;8.25;5.20;;;;;;;19.14;47.11;101935.34;6071371;23;20030;-66
2023/06/06 01:53:06;;;;;;;7.95;5.05;;;;;;;19.12;47.06;101934.78;6070856;23;20175;-67
2023/06/06 01:55:36;;;;;;;10.93;5.97;;;;;;;19.10;47.11;101936.13;6071449;23;20023;-66
2023/06/06 01:58:06;;;;;;;6.57;4.80;;;;;;;19.06;47.16;101930.38;6072286;23;20030;-67
2023/06/06 02:00:34;;;;;;;7.57;5.40;;;;;;;19.02;47.34;101926.50;6071472;23;20037;-67
2023/06/06 02:03:02;;;;;;;9.13;4.97;;;;;;;18.99;47.14;101928.91;6086040;23;20029;-65
2023/06/06 02:05:30;;;;;;;9.48;5.25;;;;;;;18.98;47.38;101929.97;6162042;23;20056;-66
2023/06/06 02:07:59;;;;;;;9.23;5.05;;;;;;;18.95;47.04;101931.31;6161562;23;20089;-66
2023/06/06 02:10:26;;;;;;;6.90;4.80;;;;;;;18.91;47.36;101935.59;6162694;23;20030;-66
2023/06/06 02:12:54;;;;;;;8.27;4.95;;;;;;;18.90;47.27;101928.50;6163694;23;20029;-66
2023/06/06 02:15:26;;;;;;;6.93;4.90;;;;;;;18.91;47.34;101932.06;6162924;23;20032;-67
2023/06/06 02:17:54;;;;;;;5.60;4.38;;;;;;;18.90;47.29;101935.84;6163748;23;20022;-67
2023/06/06 02:20:22;;;;;;;8.82;5.00;;;;;;;18.89;47.13;101936.94;6163127;23;20356;-67
2023/06/06 02:22:50;;;;;;;8.27;4.68;;;;;;;18.88;47.09;101929.84;6163292;23;20029;-67
2023/06/06 02:25:17;;;;;;;10.82;5.05;;;;;;;18.86;47.29;101935.53;6162409;23;20029;-66
2023/06/06 02:27:48;;;;;;;7.13;4.68;;;;;;;18.85;47.21;101937.44;6163373;23;20029;-67
2023/06/06 02:30:16;;;;;;;10.88;4.95;;;;;;;18.84;47.09;101937.69;6163733;23;20036;-67
2023/06/06 02:32:46;;;;;;;9.07;5.25;;;;;;;18.81;47.17;101936.28;6163556;23;20048;-66
2023/06/06 02:35:18;;;;;;;9.85;5.15;;;;;;;18.79;47.22;101938.44;6162270;23;20029;-65
2023/06/06 02:37:46;;;;;;;7.82;4.60;;;;;;;18.78;47.23;101925.06;6163086;23;20025;-68
2023/06/06 02:40:14;;;;;;;17.02;5.53;;;;;;;18.76;47.02;101929.94;6162668;23;20060;-65
2023/06/06 02:42:42;;;;;;;7.35;4.13;;;;;;;18.73;47.35;101935.88;6188394;23;20028;-68
2023/06/06 02:45:11;;;;;;;8.52;5.97;;;;;;;18.71;47.27;101927.16;6193738;23;20029;-63
2023/06/06 02:47:39;;;;;;;6.70;4.80;;;;;;;18.70;47.23;101926.31;6194491;23;20027;-66
2023/06/06 02:50:11;;;;;;;9.40;5.07;;;;;;;18.70;47.03;101922.78;6195599;23;20021;-65
2023/06/06 02:52:40;;;;;;;8.70;5.65;;;;;;;18.67;47.18;101924.09;6192838;23;20066;-65
2023/06/06 02:55:09;;;;;;;9.52;5.15;;;;;;;18.67;47.30;101932.25;6194260;23;20035;-64
2023/06/06 02:57:37;;;;;;;9.23;4.90;;;;;;;18.65;47.17;101930.88;6194141;23;20100;-66
2023/06/06 03:00:08;;;;;;;9.43;4.97;;;;;;;18.61;47.32;101927.00;6194077;23;20029;-64
2023/06/06 03:02:36;;;;;;;8.15;4.47;;;;;;;18.60;47.16;101933.47;6193366;23;20081;-65
2023/06/06 03:05:06;;;;;;;8.80;4.75;;;;;;;18.56;47.13;101930.44;6194067;23;20052;-66
2023/06/06 03:07:37;;;;;;;8.70;4.65;;;;;;;18.56;47.42;101941.31;6193341;23;20032;-67
2023/06/06 03:10:05;;;;;;;9.73;5.18;;;;;;;18.53;47.30;101939.09;6193387;23;20072;-64
2023/06/06 03:12:33;;;;;;;10.82;5.32;;;;;;;18.50;47.64;101943.13;6192357;23;20033;-66
2023/06/06 03:15:01;;;;;;;8.68;4.82;;;;;;;18.47;47.53;101940.09;6192434;23;20036;-67
2023/06/06 03:17:29;;;;;;;7.75;5.22;;;;;;;18.42;47.47;101935.38;6193193;23;20056;-66
2023/06/06 03:19:57;;;;;;;9.25;5.50;;;;;;;18.40;47.66;101939.41;6193060;23;20502;-65
2023/06/06 03:22:25;;;;;;;8.15;5.18;;;;;;;18.37;47.68;101932.56;6189657;23;20029;-65
2023/06/06 03:24:56;;;;;;;12.52;5.75;;;;;;;18.36;47.54;101938.25;6192119;23;20025;-67
2023/06/06 03:27:23;;;;;;;7.15;4.57;;;;;;;18.33;47.80;101933.31;6191521;23;20025;-67
2023/06/06 03:29:52;;;;;;;7.43;5.22;;;;;;;18.31;47.86;101930.84;6192187;23;20025;-66
2023/06/06 03:32:20;;;;;;;7.47;4.63;;;;;;;18.29;47.73;101941.16;6191498;23;20032;-67
2023/06/06 03:34:48;;;;;;;11.23;5.28;;;;;;;18.27;47.81;101937.03;6191738;23;20075;-65
2023/06/06 03:37:16;;;;;;;7.85;5.15;;;;;;;18.25;47.81;101939.16;6191342;23;20031;-67
2023/06/06 03:39:43;;;;;;;8.10;5.43;;;;;;;18.24;47.70;101942.97;6192038;23;20025;-66
2023/06/06 03:42:13;;;;;;;7.20;4.93;;;;;;;18.21;47.85;101936.94;6189299;23;20032;-65
2023/06/06 03:44:43;;;;;;;6.13;4.68;;;;;;;18.19;47.79;101941.78;6191318;23;20025;-66
2023/06/06 03:47:10;;;;;;;7.30;4.28;;;;;;;18.17;47.74;101946.66;6191378;23;20025;-65
2023/06/06 03:49:38;;;;;;;9.07;5.85;;;;;;;18.13;47.46;101941.97;6192655;23;21595;-65
2023/06/06 03:52:07;;;;;;;7.78;4.30;;;;;;;18.12;47.67;101945.75;6192227;23;20052;-65
2023/06/06 03:54:37;;;;;;;10.75;5.53;;;;;;;18.11;47.83;101941.38;6192996;23;20136;-65
2023/06/06 03:57:07;;;;;;;11.07;5.10;;;;;;;18.10;47.79;101940.56;6192306;23;20084;-67
2023/06/06 03:59:36;;;;;;;6.10;4.32;;;;;;;18.07;47.66;101945.66;6192643;23;20047;-66
2023/06/06 04:05:47;;;;;;;8.82;4.85;;;;;;;18.01;47.75;101944.75;6190803;23;20015;-65
2023/06/06 04:08:42;;;;;;;9.63;5.05;;;;;;;18.01;47.80;101935.75;6191671;23;20029;-66
2023/06/06 04:11:10;;;;;;;8.30;4.28;;;;;;;18.00;47.86;101948.53;6186983;23;20517;-66
2023/06/06 04:13:38;;;;;;;8.93;4.32;;;;;;;17.98;47.90;101947.94;6191663;23;20063;-64
2023/06/06 04:16:07;;;;;;;8.30;4.32;;;;;;;17.96;47.73;101944.66;6193624;23;20028;-65
2023/06/06 04:18:35;;;;;;;9.20;5.03;;;;;;;17.95;47.74;101943.00;6192423;23;20094;-66
2023/06/06 04:21:03;;;;;;;8.13;4.82;;;;;;;17.93;47.80;101947.03;6192677;23;20025;-68
2023/06/06 04:23:31;;;;;;;8.50;4.15;;;;;;;17.91;47.85;101947.28;6192194;23;20028;-64
2023/06/06 04:26:01;;;;;;;7.50;5.30;;;;;;;17.88;47.73;101951.31;6192708;23;20234;-67
2023/06/06 04:28:31;;;;;;;7.97;4.50;;;;;;;17.87;47.85;101946.94;6193178;23;20035;-67
2023/06/06 04:30:59;;;;;;;7.22;4.97;;;;;;;17.86;47.88;101953.44;6193408;23;20029;-67
2023/06/06 04:33:30;;;;;;;7.55;4.80;;;;;;;17.85;47.76;101948.25;6192202;23;20095;-63
2023/06/06 04:36:00;;;;;;;6.07;4.57;;;;;;;17.83;47.92;101950.38;6193068;23;20076;-65
2023/06/06 04:38:29;;;;;;;6.75;4.78;;;;;;;17.81;47.99;101949.81;6192811;23;20379;-68
2023/06/06 04:41:01;;;;;;;7.70;4.40;;;;;;;17.81;47.94;101955.25;6191265;23;20025;-65
2023/06/06 04:43:49;;;;;;;6.65;4.38;;;;;;;17.79;47.97;101952.75;6163487;23;20045;-68
2023/06/06 04:46:21;;;;;;;6.40;4.88;;;;;;;17.76;47.99;101955.97;6161645;23;20033;-65
2023/06/06 04:48:54;;;;;;;6.88;4.40;;;;;;;17.75;48.11;101958.94;6161369;23;20021;-67
2023/06/06 04:51:29;;;;;;;9.50;4.80;;;;;;;17.74;47.75;101951.84;6159689;23;21110;-68
2023/06/06 04:53:59;;;;;;;8.52;5.00;;;;;;;17.69;48.12;101949.84;6160966;23;20080;-67
2023/06/06 04:56:28;;;;;;;6.72;4.45;;;;;;;17.71;48.19;101946.88;6159591;23;20081;-67
2023/06/06 04:58:56;;;;;;;9.50;4.70;;;;;;;17.71;48.02;101953.16;6162629;23;20025;-64
2023/06/06 05:01:24;;;;;;;10.55;4.90;;;;;;;17.70;48.07;101950.66;6162995;23;20021;-65
2023/06/06 05:03:54;;;;;;;7.30;4.97;;;;;;;17.68;48.10;101948.19;6163236;23;20100;-64
2023/06/06 05:06:22;;;;;;;7.28;4.40;;;;;;;17.69;48.03;101947.13;6160617;23;20090;-65
2023/06/06 05:08:50;;;;;;;6.35;4.72;;;;;;;17.68;48.01;101944.66;6160490;23;20029;-69
2023/06/06 05:11:19;;;;;;;9.52;4.22;;;;;;;17.68;47.89;101942.75;6159606;23;20033;-65
2023/06/06 05:13:47;;;;;;;7.93;5.03;;;;;;;17.70;47.79;101939.78;6153712;23;20029;-67
2023/06/06 05:16:14;;;;;;;7.80;4.82;;;;;;;17.71;47.70;101941.44;6155566;23;20040;-67
2023/06/06 05:18:42;;;;;;;8.73;4.93;;;;;;;17.72;48.04;101956.69;6155576;23;20060;-65
2023/06/06 05:21:11;;;;;;;9.45;4.65;;;;;;;17.71;48.01;101961.31;6157155;23;20074;-67
2023/06/06 05:23:39;;;;;;;5.90;4.72;;;;;;;17.72;47.88;101953.97;6156045;23;20073;-65
2023/06/06 05:26:07;;;;;;;6.72;4.60;;;;;;;17.74;48.11;101954.56;6156811;23;20065;-66
2023/06/06 05:28:35;;;;;;;8.38;4.50;;;;;;;17.76;47.86;101953.25;6156076;23;20101;-66
2023/06/06 05:31:05;;;;;;;7.55;4.93;;;;;;;17.76;47.72;101955.13;6157414;23;20060;-68
2023/06/06 05:33:33;;;;;;;7.57;4.45;;;;;;;17.77;47.86;101963.06;6156549;23;20056;-65
2023/06/06 05:36:02;;;;;;;6.60;4.10;;;;;;;17.79;47.77;101954.66;6156718;23;20029;-64
2023/06/06 05:38:31;;;;;;;7.13;4.45;;;;;;;17.79;47.71;101960.09;6154913;23;20076;-64
2023/06/06 05:40:59;;;;;;;10.02;5.47;;;;;;;17.81;48.24;101956.06;6154494;23;20088;-69
2023/06/06 05:43:30;;;;;;;11.73;5.38;;;;;;;17.81;48.02;101958.78;6185334;23;20028;-66
2023/06/06 05:46:01;;;;;;;8.30;4.38;;;;;;;17.83;47.92;101966.69;6188453;23;20052;-68
2023/06/06 05:48:30;;;;;;;7.65;4.72;;;;;;;17.84;48.09;101971.91;6187150;23;20499;-68
2023/06/06 05:50:57;;;;;;;8.70;4.25;;;;;;;17.84;48.05;101974.63;6187003;23;20025;-66
2023/06/06 05:53:26;;;;;;;7.32;4.55;;;;;;;17.86;48.00;101971.66;6184293;23;20032;-68
2023/06/06 05:55:55;;;;;;;8.57;4.18;;;;;;;17.86;48.06;101969.75;6186832;23;20045;-67
2023/06/06 05:58:23;;;;;;;7.93;4.15;;;;;;;17.86;48.14;101960.78;6187022;23;20025;-66
2023/06/06 06:00:51;;;;;;;7.63;4.40;;;;;;;17.89;48.09;101971.16;6186608;23;20242;-66
2023/06/06 06:03:20;;;;;;;6.45;3.80;;;;;;;17.91;47.96;101966.31;6186155;23;20024;-68
2023/06/06 06:05:49;;;;;;;8.48;3.63;;;;;;;17.93;48.04;101963.34;6185911;23;20145;-65
2023/06/06 06:08:17;;;;;;;13.77;6.10;;;;;;;17.96;48.63;101971.03;6191835;23;20029;-67
2023/06/06 06:10:45;;;;;;;10.95;5.50;;;;;;;17.95;48.50;101974.81;6189134;23;20025;-64
2023/06/06 06:13:15;;;;;;;9.70;5.05;;;;;;;17.95;48.53;101966.66;6194329;23;20029;-67
2023/06/06 06:15:44;;;;;;;10.02;4.18;;;;;;;17.96;48.46;101968.31;6191431;23;20065;-67
2023/06/06 06:18:12;;;;;;;9.02;4.20;;;;;;;17.98;48.30;101980.59;6193349;23;20040;-69
2023/06/06 06:20:40;;;;;;;7.20;4.10;;;;;;;17.98;48.27;101964.28;6193491;23;20076;-67
2023/06/06 06:23:08;;;;;;;10.10;4.30;;;;;;;18.00;48.25;101969.47;6193929;23;20021;-67
2023/06/06 06:25:36;;;;;;;9.18;4.20;;;;;;;18.01;48.26;101976.56;6194388;23;20028;-67
2023/06/06 06:28:04;;;;;;;8.60;3.90;;;;;;;18.02;48.27;101973.59;6194377;23;20025;-68
2023/06/06 06:30:33;;;;;;;7.93;4.03;;;;;;;18.03;48.21;101966.25;6195332;23;20029;-69
2023/06/06 06:33:01;;;;;;;6.22;3.92;;;;;;;18.03;48.23;101972.53;6194727;23;20041;-67
2023/06/06 06:35:29;;;;;;;7.13;3.95;;;;;;;18.04;48.29;101973.34;6194270;23;20505;-66
2023/06/06 06:37:58;;;;;;;10.32;4.15;;;;;;;18.05;48.17;101964.94;6194441;23;20099;-67
2023/06/06 06:40:25;;;;;;;8.75;3.78;;;;;;;18.07;48.19;101965.53;6194619;23;20048;-68
2023/06/06 06:42:53;;;;;;;8.85;3.78;;;;;;;18.10;48.31;101977.81;6193234;23;20025;-68
2023/06/06 06:45:23;;;;;;;8.52;4.30;;;;;;;18.11;48.19;101976.75;6193627;23;20029;-66
2023/06/06 06:47:52;;;;;;;7.22;3.53;;;;;;;18.12;48.19;101975.69;6194123;23;20032;-67
2023/06/06 06:50:20;;;;;;;7.43;3.90;;;;;;;18.12;48.29;101975.69;6194155;23;20072;-68
2023/06/06 06:52:48;;;;;;;7.25;3.63;;;;;;;18.13;48.29;101978.16;6191711;23;20032;-67
2023/06/06 06:55:16;;;;;;;14.30;4.70;;;;;;;18.13;48.44;101986.31;6191969;23;20107;-68
2023/06/06 06:57:44;;;;;;;5.45;3.67;;;;;;;18.14;48.44;101977.09;6191872;23;20025;-68
2023/06/06 07:00:15;;;;;;;8.07;3.88;;;;;;;18.14;48.37;101976.25;6193796;23;20043;-67
2023/06/06 07:02:44;;;;;;;6.95;3.75;;;;;;;18.13;48.78;101983.59;6192630;23;20048;-65
2023/06/06 07:05:15;;;;;;;6.07;4.10;;;;;;;18.15;48.65;101978.72;6193507;23;20029;-65
2023/06/06 07:07:44;;;;;;;7.40;3.80;;;;;;;18.16;48.67;101983.09;6191683;23;20379;-69
2023/06/06 07:10:14;;;;;;;6.68;3.63;;;;;;;18.16;48.66;101972.22;6192365;23;20024;-68
2023/06/06 07:12:42;;;;;;;7.10;3.78;;;;;;;18.15;48.74;101970.56;6191456;23;20040;-67
2023/06/06 07:15:10;;;;;;;8.27;4.10;;;;;;;18.18;48.63;101980.13;6192438;23;20021;-67
2023/06/06 07:17:38;;;;;;;5.95;3.60;;;;;;;18.19;48.50;101982.63;6191027;23;20029;-67
2023/06/06 07:20:08;;;;;;;9.23;3.70;;;;;;;18.20;48.56;101981.53;6192032;23;20537;-69
2023/06/06 07:22:37;;;;;;;6.78;3.58;;;;;;;18.21;48.82;101982.38;6190864;23;20444;-69
2023/06/06 07:25:06;;;;;;;6.55;3.38;;;;;;;18.22;48.86;101978.56;6193488;23;20025;-68
2023/06/06 07:27:35;;;;;;;5.43;3.25;;;;;;;18.22;48.85;101978.56;6192186;23;20099;-68
2023/06/06 07:30:05;;;;;;;8.70;3.90;;;;;;;18.24;48.81;101978.34;6192140;23;20028;-67
2023/06/06 07:32:34;;;;;;;6.53;3.40;;;;;;;18.24;48.83;101978.34;6191257;23;20025;-67
2023/06/06 07:35:02;;;;;;;6.00;3.35;;;;;;;18.25;48.97;101977.25;6192127;23;20359;-70
2023/06/06 07:37:31;;;;;;;6.25;3.38;;;;;;;18.24;49.00;101970.16;6192517;23;20032;-68
2023/06/06 07:40:00;;;;;;;6.93;3.70;;;;;;;18.24;49.16;101973.72;6194013;23;20021;-68
2023/06/06 07:42:28;;;;;;;6.97;3.72;;;;;;;18.24;49.15;101968.28;6190571;23;20055;-69
2023/06/06 07:44:56;;;;;;;6.78;3.33;;;;;;;18.25;49.40;101961.75;6192160;23;20104;-66
2023/06/06 07:47:24;;;;;;;7.55;2.90;;;;;;;18.26;49.24;101959.88;6192235;23;20021;-69
2023/06/06 07:49:53;;;;;;;7.90;3.70;;;;;;;18.28;48.95;101952.28;6194196;23;20036;-64
2023/06/06 07:52:20;;;;;;;5.28;3.10;;;;;;;18.28;49.26;101958.56;6193396;23;20054;-67
2023/06/06 07:54:49;;;;;;;8.35;3.88;;;;;;;18.31;49.26;101962.66;6194643;23;20032;-64
2023/06/06 07:57:19;;;;;;;7.30;3.90;;;;;;;18.29;49.37;101959.38;6192658;23;20052;-69
2023/06/06 07:59:47;;;;;;;9.00;4.43;;;;;;;18.31;49.56;101957.22;6194407;23;20072;-69
2023/06/06 08:02:15;;;;;;;6.72;3.85;;;;;;;18.33;49.49;101955.09;6191443;23;20025;-64
2023/06/06 08:04:45;;;;;;;5.10;3.55;;;;;;;18.34;49.59;101956.75;6192976;23;20021;-67
2023/06/06 08:07:13;;;;;;;8.90;4.18;;;;;;;18.34;49.69;101949.41;6191459;23;20384;-68
2023/06/06 08:09:42;;;;;;;6.32;3.70;;;;;;;18.35;49.66;101955.66;6191753;23;20056;-66
2023/06/06 08:12:11;;;;;;;7.68;3.65;;;;;;;18.37;49.75;101961.69;6190365;23;20025;-68
2023/06/06 08:14:42;;;;;;;6.78;4.28;;;;;;;18.38;49.74;101960.63;6193158;23;20305;-67
2023/06/06 08:17:10;;;;;;;6.93;3.67;;;;;;;18.41;49.66;101958.22;6191688;23;20024;-67
2023/06/06 08:19:38;;;;;;;6.53;3.83;;;;;;;18.43;49.86;101964.25;6194157;23;20033;-68
2023/06/06 08:22:06;;;;;;;8.25;3.40;;;;;;;18.45;49.77;101961.28;6192455;23;20025;-68
2023/06/06 08:24:34;;;;;;;9.23;3.63;;;;;;;18.48;49.76;101963.50;6194021;23;20116;-68
2023/06/06 08:27:01;;;;;;;7.72;4.10;;;;;;;18.50;49.91;101955.91;6192248;23;20025;-68
2023/06/06 08:29:29;;;;;;;12.52;4.28;;;;;;;18.50;50.00;101947.75;6193884;23;20025;-68
2023/06/06 08:32:00;;;;;;;9.27;3.75;;;;;;;18.51;50.05;101947.50;6193181;23;20028;-68
2023/06/06 08:34:28;;;;;;;7.50;3.95;;;;;;;18.51;50.11;101946.69;6194511;23;20035;-68
2023/06/06 08:36:56;;;;;;;5.68;3.33;;;;;;;18.57;50.02;101945.69;6193169;23;20290;-68
2023/06/06 08:39:24;;;;;;;8.43;3.53;;;;;;;18.60;49.83;101945.19;6193228;23;20021;-68
2023/06/06 08:41:53;;;;;;;5.80;3.47;;;;;;;18.63;49.87;101952.06;6191489;23;20029;-68
2023/06/06 08:44:22;;;;;;;5.60;3.80;;;;;;;18.64;49.95;101948.28;6193920;23;20021;-69
2023/06/06 08:46:53;;;;;;;12.27;3.88;;;;;;;18.67;50.02;101947.78;6192493;23;20380;-67
2023/06/06 08:49:22;;;;;;;11.02;4.05;;;;;;;18.70;49.93;101952.72;6193502;23;20025;-68
2023/06/06 08:51:51;;;;;;;7.85;3.80;;;;;;;18.71;49.79;101955.19;6193284;23;20084;-67
2023/06/06 08:54:20;;;;;;;4.60;3.25;;;;;;;18.73;49.79;101939.44;6193322;23;20075;-68
2023/06/06 08:56:51;;;;;;;7.95;3.85;;;;;;;18.74;49.92;101945.72;6192080;23;20025;-67
2023/06/06 08:59:20;;;;;;;10.13;4.57;;;;;;;18.77;49.85;101940.59;6193872;23;20080;-68
2023/06/06 09:01:51;;;;;;;9.43;4.60;;;;;;;18.79;49.93;101945.78;6193239;23;20025;-65
2023/06/06 09:04:20;;;;;;;8.80;4.32;;;;;;;18.78;50.21;101950.41;6193985;23;20093;-64
2023/06/06 09:06:56;;;;;;;7.80;4.20;;;;;;;18.81;50.46;101946.34;6192690;23;20040;-66
2023/06/06 09:09:25;;;;;;;7.55;3.97;;;;;;;18.82;50.34;101943.38;6192619;23;20092;-64
2023/06/06 09:11:53;;;;;;;8.30;4.20;;;;;;;18.85;50.27;101950.22;6190214;23;20091;-67
2023/06/06 09:14:21;;;;;;;8.88;3.95;;;;;;;18.85;50.08;101947.50;6191515;23;20025;-67
2023/06/06 09:16:52;;;;;;;10.55;4.05;;;;;;;18.87;50.08;101941.81;6190292;23;20064;-65
2023/06/06 09:19:25;;;;;;;8.32;3.95;;;;;;;18.87;50.13;101945.34;6192342;23;20549;-63
2023/06/06 09:21:54;;;;;;;6.93;3.67;;;;;;;18.88;50.37;101944.28;6193832;23;20052;-66
2023/06/06 09:24:22;;;;;;;6.47;3.78;;;;;;;18.88;50.25;101941.56;6193436;23;20084;-65
2023/06/06 09:26:50;;;;;;;8.35;4.32;;;;;;;18.90;50.26;101944.84;6192469;23;20085;-67
2023/06/06 09:29:18;;;;;;;6.82;4.47;;;;;;;18.89;50.26;101937.75;6195195;23;20025;-67
2023/06/06 09:31:48;;;;;;;9.25;4.45;;;;;;;18.93;50.29;101938.91;6195399;23;20025;-66
2023/06/06 09:34:16;;;;;;;6.80;3.53;;;;;;;18.94;50.42;101946.00;6195528;23;20025;-67
2023/06/06 09:36:45;;;;;;;6.20;4.10;;;;;;;18.96;50.31;101941.13;6192635;23;20040;-64
2023/06/06 09:39:16;;;;;;;9.63;3.60;;;;;;;18.98;50.31;101932.72;6187029;23;20062;-64
2023/06/06 09:41:45;;;;;;;6.93;3.67;;;;;;;19.00;50.46;101923.22;6190374;23;20025;-64
2023/06/06 09:44:19;;;;;;;7.57;3.75;;;;;;;19.03;50.48;101936.31;6192244;23;20081;-64
2023/06/06 09:46:47;;;;;;;9.48;3.45;;;;;;;19.06;50.37;101930.38;6192490;23;20031;-64
2023/06/06 09:49:15;;;;;;;10.02;3.70;;;;;;;19.08;50.39;101930.91;6192994;23;20339;-64
2023/06/06 09:51:43;;;;;;;6.97;3.95;;;;;;;19.12;50.31;101933.97;6190915;23;20064;-64
2023/06/06 09:54:12;;;;;;;8.43;3.80;;;;;;;19.14;50.42;101927.19;6191589;23;20029;-65
2023/06/06 09:56:46;;;;;;;8.48;3.35;;;;;;;19.17;50.22;101931.31;6191237;23;20104;-65
2023/06/06 09:59:15;;;;;;;7.70;3.70;;;;;;;19.19;50.38;101920.97;6192434;23;20079;-64
2023/06/06 10:01:45;;;;;;;9.90;3.25;;;;;;;19.19;50.42;101913.63;6192558;23;20025;-65
2023/06/06 10:04:13;;;;;;;6.57;3.45;;;;;;;19.24;50.43;101909.31;6192554;23;20025;-64
2023/06/06 10:06:43;;;;;;;8.55;4.68;;;;;;;19.25;50.19;101917.22;6191522;23;20027;-64
2023/06/06 10:09:12;;;;;;;7.45;4.00;;;;;;;19.28;50.31;101914.00;6191809;23;20362;-65
2023/06/06 10:11:43;;;;;;;6.60;3.90;;;;;;;19.32;50.40;101904.25;6191056;23;20031;-64
2023/06/06 10:14:14;;;;;;;7.88;3.28;;;;;;;19.35;50.54;101908.34;6193340;23;20256;-63
2023/06/06 10:16:42;;;;;;;5.60;3.55;;;;;;;19.39;50.42;101912.22;6192147;23;20029;-64
2023/06/06 10:19:14;;;;;;;5.88;3.60;;;;;;;19.43;50.44;101910.63;6192940;23;20052;-64
2023/06/06 10:21:42;;;;;;;5.45;3.22;;;;;;;19.52;50.66;101913.75;6194383;23;20156;-64
2023/06/06 10:24:10;;;;;;;5.18;2.88;;;;;;;19.58;50.78;101921.75;6194003;23;20024;-65
2023/06/06 10:26:47;;;;;;;6.43;3.47;;;;;;;19.67;50.66;101909.31;6193026;23;20048;-65
2023/06/06 10:29:26;;;;;;;7.10;3.33;;;;;;;19.77;50.65;101917.59;6193895;23;20052;-66
2023/06/06 10:31:58;;;;;;;8.48;3.05;;;;;;;19.81;49.90;101907.00;6188963;23;20100;-67
2023/06/06 10:34:31;;;;;;;5.85;2.90;;;;;;;19.83;49.97;101919.28;6189380;23;20032;-66
2023/06/06 10:37:14;;;;;;;7.68;3.50;;;;;;;19.82;50.30;101904.00;6187938;23;20295;-66
2023/06/06 10:39:46;;;;;;;8.15;3.40;;;;;;;19.87;50.26;101905.13;6189160;23;20028;-65
2023/06/06 10:42:16;;;;;;;7.50;2.97;;;;;;;19.90;50.39;101910.06;6186973;23;20029;-68
2023/06/06 10:44:55;;;;;;;7.25;2.80;;;;;;;19.93;50.15;101898.66;6189039;23;20055;-67
2023/06/06 10:47:30;;;;;;;5.25;3.13;;;;;;;19.95;50.38;101900.03;6188263;23;20029;-66
2023/06/06 10:50:17;;;;;;;6.07;3.47;;;;;;;20.01;50.17;101896.28;6188384;23;20025;-65
2023/06/06 10:52:46;;;;;;;6.30;3.28;;;;;;;20.08;50.40;101899.59;6187008;23;20052;-67
2023/06/06 10:55:17;;;;;;;5.72;3.20;;;;;;;20.14;49.96;101895.00;6188268;23;20092;-67
2023/06/06 10:57:55;;;;;;;6.70;3.15;;;;;;;20.19;50.20;101889.59;6187892;23;20029;-63
2023/06/06 11:00:24;;;;;;;8.07;3.30;;;;;;;20.25;50.05;101885.81;6190204;23;20296;-67
2023/06/06 11:02:55;;;;;;;5.80;3.00;;;;;;;20.27;49.53;101875.47;6188229;23;20025;-67
2023/06/06 11:05:23;;;;;;;5.72;2.75;;;;;;;20.32;49.55;101889.16;6189997;23;20037;-66
2023/06/06 11:07:58;;;;;;;8.27;3.85;;;;;;;20.36;49.20;101887.56;6188134;23;20321;-66
2023/06/06 11:10:25;;;;;;;8.38;3.40;;;;;;;20.37;49.19;101891.94;6189441;23;20025;-66
2023/06/06 11:12:55;;;;;;;9.27;3.83;;;;;;;20.39;49.02;101888.97;6187789;23;20060;-66
2023/06/06 11:15:27;;;;;;;6.88;4.25;;;;;;;20.41;49.00;101882.16;6189486;23;20033;-66
2023/06/06 11:18:02;;;;;;;11.18;4.03;;;;;;;20.45;49.09;101877.81;6187007;23;20029;-65
2023/06/06 11:20:39;;;;;;;7.43;3.45;;;;;;;20.50;49.22;101874.31;6186049;23;20117;-66
2023/06/06 11:23:08;;;;;;;7.22;4.03;;;;;;;20.56;49.19;101886.06;6186059;23;20063;-66
2023/06/06 11:25:37;;;;;;;6.88;3.38;;;;;;;20.57;48.90;101876.78;6186087;23;20025;-66
2023/06/06 11:28:08;;;;;;;7.95;3.70;;;;;;;20.61;48.76;101878.75;6186252;23;20056;-65
2023/06/06 11:30:39;;;;;;;11.23;3.80;;;;;;;20.65;48.55;101879.84;6186829;23;20025;-66
2023/06/06 11:33:09;;;;;;;8.55;3.80;;;;;;;20.70;48.43;101881.78;6186927;23;20102;-67
2023/06/06 11:35:39;;;;;;;8.85;3.75;;;;;;;20.74;48.49;101878.28;6186316;23;20077;-65
2023/06/06 11:38:08;;;;;;;6.18;3.15;;;;;;;20.79;48.48;101880.22;6184994;23;20029;-66
2023/06/06 11:40:36;;;;;;;8.45;3.22;;;;;;;20.86;48.46;101869.00;6185158;23;20040;-66
2023/06/06 11:43:03;;;;;;;7.65;3.65;;;;;;;20.89;48.25;101873.94;6183886;23;20029;-66